Tiempo atmosférico en la estación meteorológica de El Bosque, Cádiz (295 m.)



Fecha
DESCASC
Temp. máxima en grados centígrados (hora)
DESCASC
Temp. mínima en grados centígrados (hora)
DESCASC
Temp. media en grados centígrados
DESCASC
Racha de viento máxima en m/sg (hora)
DESCASC
Velocidad máxima media en intervalos de 10 minutos(hora)
DESCASC
Precipitaciones diarias en mm
DESCASC
Precipitaciones de 00:00 a 06:00 en mm
DESCASC
Precipitaciones de 06:00 a 12:00 en mm
DESCASC
Precipitaciones de 12:00 a 18:00 en mm
DESCASC
Precipitaciones de 18:00 a 24:00 en mm
DESCASC
28-02-2021 16.6 (15:40) 8.8 (06:00) 12.7 10 (23:50) 6.11 (23:50) 0 0 0 0 0
27-02-2021 16.6 (15:00) 8.1 (06:30) 12.4 4.72 (15:40) 2.78 (15:50) 0 0 0 0 0
26-02-2021 16.8 (15:20) 10 (23:00) 13.4 14.72 (10:30) 8.89 (10:50) 0 0 0 0 0
25-02-2021 18.3 (13:30) 11.4 (00:00) 14.8 19.17 (00:10) 12.5 (00:30) 0 0 0 0 0
24-02-2021 19.1 (16:30) 7.6 (00:00) 13.4 20 (22:20) 13.61 (23:30) 0 0 0 0 0
23-02-2021 17.5 (16:10) 3.5 (00:00) 10.5 11.11 (13:40) 6.39 (13:30) 0 0 0 0 0
22-02-2021 14.5 (16:20) 3.3 (00:00) 8.9 6.39 (13:30) 2.78 (16:20) 0 0 0 0 0
21-02-2021 15.3 (02:30) 8.4 (00:00) 11.8 15.28 (02:00) 10.28 (02:00) 12.4 0 6.2 6 0.2
20-02-2021 18.8 (13:00) 10.1 (00:00) 14.4 13.06 (22:00) 8.06 (22:00) 0 0 0 0 0
19-02-2021 20.9 (16:50) 5.1 (00:00) 13 6.67 (23:59) 4.17 (23:59) 0 0 0 0 0
18-02-2021 17.7 (18:10) 6.4 (00:00) 12.1 4.72 (05:20) 2.22 (05:20) 0 0 0 0 0
17-02-2021 20.7 (15:40) 5.7 (00:00) 13.2 4.72 (16:40) 2.78 (16:40) 0 0 0 0 0
16-02-2021 20.8 (16:30) 9.2 (00:00) 15 10.28 (09:50) 5.56 (07:30) 0 0 0 0 0
15-02-2021 19.9 (16:00) 9.3 (00:00) 14.6 13.61 (15:20) 7.5 (13:00) 0 0 0 0 0
14-02-2021 21.6 (14:10) 6 (00:00) 13.8 8.61 (16:40) 5.28 (14:20) 0 0 0 0 0
13-02-2021 21.5 (17:30) 3.9 (00:00) 12.7 5.28 (15:50) 2.5 (17:40) 0 0 0 0 0
12-02-2021 17.4 (15:50) 9.5 (00:00) 13.4 7.22 (16:40) 3.89 (16:10) 2 0 2 0 0
11-02-2021 18.2 (17:10) 11.9 (00:00) 15.1 3.89 (23:59) 1.94 (16:40) 2.2 1.6 0.6 0 0
10-02-2021 13.8 (14:00) 11.6 (00:00) 12.7 12.22 (07:20) 5.56 (07:20) 14.4 5.6 2.6 5.2 1
09-02-2021 14.4 (15:00) 11 (00:00) 12.7 11.39 (23:30) 5.83 (16:50) 11 0 1.8 3.8 5.4
08-02-2021 15.1 (16:50) 9.7 (00:00) 12.4 14.44 (04:50) 6.67 (05:00) 19.2 7.4 11.8 0 0
07-02-2021 11.7 (15:00) 8.3 (00:00) 10 8.89 (15:40) 5.28 (14:50) 6.2 3 0.8 0 2.4
06-02-2021 14.2 (14:20) 8.8 (00:00) 11.5 10.83 (00:10) 5.56 (14:30) 9.8 3 1.4 0.4 5
05-02-2021 15.1 (12:30) 9.8 (00:00) 12.5 12.78 (18:10) 7.5 (20:10) 7.8 0 0 0.6 7.2
04-02-2021 -- (--) -- (--) -- -- (--) -- (--) -- 0 0 -- 0
03-02-2021 16.5 (15:40) 7.8 (00:00) 12.2 4.17 (09:00) 2.22 (09:10) 0 0 0 0 0
02-02-2021 17.9 (16:00) 8.9 (00:00) 13.4 5.83 (11:20) 3.33 (11:30) 0 0 0 0 0
01-02-2021 15.7 (15:30) 10.5 (00:00) 13.1 8.33 (02:40) 3.89 (02:50) 5.6 4.2 1.4 0 0
31-01-2021 15 (16:30) 9.3 (00:00) 12.2 7.22 (16:30) 3.89 (23:59) 0.8 0 0 0 0.8
30-01-2021 16 (15:50) 9.9 (00:00) 12.9 11.39 (14:00) 5 (13:50) 5.6 0 2.8 2.6 0.2

Gráficas

Temp. máximas Temp. mínimas Temp. medias Precipitaciones Rachas de viento máximas Velocidades máximas media en intervalos de 10 minutos

Datos horarios

Fecha y hora oficial Temperatura (ºC) Velocidad del viento (km/h) Dirección del viento Racha (km/h) Dirección de racha Precipitación (mm) Presión (hPa) Tendencia (hPa) Humedad (%)
2021-02-28 23:00:00 13.1 10 Sudeste 19 Este 0 -- -- 69
2021-02-28 22:00:00 11.4 5 Sudoeste 14 Este 0 -- -- 77
2021-02-28 21:00:00 11.4 3 Noroeste 6 Nordeste 0 -- -- 77
2021-02-28 20:00:00 13 3 Norte 14 Sur 0 -- -- 72
2021-02-28 19:00:00 14 4 Sur 21 Sudeste 0 -- -- 68
2021-02-28 18:00:00 14.9 11 Sudeste 28 Sudeste 0 -- -- 62
2021-02-28 17:00:00 15.6 16 Sudeste 33 Sudeste 0 -- -- 58
2021-02-28 16:00:00 16.2 18 Sudeste 28 Este 0 -- -- 58
2021-02-28 15:00:00 15.3 10 Sur 27 Sur 0 -- -- 63
2021-02-28 14:00:00 15.2 12 Sudeste 27 Sudeste 0 -- -- 61
2021-02-28 13:00:00 14.7 19 Sur 31 Sur 0 -- -- 64
2021-02-28 12:00:00 16.1 12 Sur 27 Sudeste 0 -- -- 60
2021-02-28 11:00:00 14.8 9 Sudeste 21 Sudeste 0 -- -- 64
2021-02-28 10:00:00 12.6 7 Norte 11 Norte 0 -- -- 73
2021-02-28 09:00:00 12.3 3 Noroeste 10 Sur 0 -- -- 69
2021-02-28 08:00:00 10.1 4 Norte 9 Norte 0 -- -- 76
2021-02-28 07:00:00 8.9 0 Calma 6 Este 0 -- -- 80
2021-02-28 06:00:00 8.8 2 Norte 11 Este 0 -- -- 80
2021-02-28 05:00:00 9.3 0 Calma 6 Este 0 -- -- 77
2021-02-28 04:00:00 11 7 Sudeste 28 Sudeste 0 -- -- 71
2021-02-28 03:00:00 10.9 11 Sudeste 24 Este 0 -- -- 71
2021-02-28 02:00:00 9.3 4 Sudoeste 17 Este 0 -- -- 78
2021-02-28 01:00:00 10.1 7 Sudeste 11 Sudeste 0 -- -- 76
2021-02-28 00:00:00 9.7 4 Sudeste 16 Sudeste 0 -- -- 77
2021-02-27 23:00:00 9.3 5 Este 10 Sudeste 0 -- -- 83
2021-02-27 22:00:00 9.5 8 Este 13 Sudeste 0 -- -- 85
2021-02-27 21:00:00 11.4 3 Sudeste 12 Sudeste 0 -- -- 76
2021-02-27 20:00:00 12.6 2 Sudeste 5 Este 0 -- -- 79
2021-02-27 19:00:00 13.6 3 Norte 6 Oeste 0 -- -- 74
2021-02-27 18:00:00 15.1 3 Noroeste 9 Norte 0 -- -- 66
2021-02-27 17:00:00 15.4 5 Noroeste 13 Sur 0 -- -- 64
2021-02-27 16:00:00 15.5 8 Sudoeste 17 Sur 0 -- -- 62
2021-02-27 15:00:00 16.6 7 Norte 15 Norte 0 -- -- 60
2021-02-27 14:00:00 15.8 4 Noroeste 13 Norte 0 -- -- 62
2021-02-27 13:00:00 15.2 5 Norte 12 Noroeste 0 -- -- 61
2021-02-27 12:00:00 13.9 4 Noroeste 6 Noroeste 0 -- -- 71
2021-02-27 11:00:00 11.9 4 Noroeste 6 Noroeste 0 -- -- 84
2021-02-27 10:00:00 10.3 0 Calma 8 Nordeste 0 -- -- 86
2021-02-27 09:00:00 8.7 5 Este 7 Este 0 -- -- 87
2021-02-27 08:00:00 8.5 3 Este 10 Este 0 -- -- 86
2021-02-27 07:00:00 8.2 6 Este 9 Este 0 -- -- 88
2021-02-27 06:00:00 8.4 2 Este 6 Este 0 -- -- 87
2021-02-27 05:00:00 8.3 0 Calma 8 Este 0 -- -- 87
2021-02-27 04:00:00 9 2 Sudeste 8 Este 0 -- -- 83
2021-02-27 03:00:00 9 2 Este 11 Este 0 -- -- 82
2021-02-27 02:00:00 10.4 4 Sudeste 13 Sudeste 0 -- -- 75
2021-02-27 01:00:00 10 3 Sudeste 12 Este 0 -- -- 77
2021-02-27 00:00:00 10.2 2 Norte 9 Este 0 -- -- 79
2021-02-26 23:00:00 10 0 Calma 8 Norte 0 -- -- 81
2021-02-26 22:00:00 10.8 5 Nordeste 9 Nordeste 0 -- -- 80
2021-02-26 21:00:00 11.9 0 Calma 12 Nordeste 0 -- -- 77
2021-02-26 20:00:00 12.9 0 Calma 5 Norte 0 -- -- 73
2021-02-26 19:00:00 14.4 2 Sur 11 Sur 0 -- -- 70
2021-02-26 18:00:00 15.8 8 Sudoeste 17 Sur 0 -- -- 62
2021-02-26 17:00:00 16.4 7 Sudoeste 21 Sudoeste 0 -- -- 62
2021-02-26 16:00:00 16.1 14 Sur 24 Sudoeste 0 -- -- 63
2021-02-26 15:00:00 16.6 15 Sudeste 26 Sudeste 0 -- -- 60
2021-02-26 14:00:00 16.1 6 Norte 17 Norte 0 -- -- 64
2021-02-26 13:00:00 16.1 11 Norte 22 Nordeste 0 -- -- 66
2021-02-26 12:00:00 16.3 9 Este 48 Este 0 -- -- 66
2021-02-26 11:00:00 15.9 31 Sudeste 53 Sudeste 0 -- -- 61
2021-02-26 10:00:00 14.7 27 Sudeste 44 Sudeste 0 -- -- 67
2021-02-26 09:00:00 13.9 26 Sudeste 45 Sudeste 0 -- -- 68
2021-02-26 08:00:00 11.7 4 Este 14 Sudeste 0 -- -- 81
2021-02-26 07:00:00 11.2 8 Norte 13 Norte 0 -- -- 88
2021-02-26 06:00:00 11.1 3 Noroeste 8 Norte 0 -- -- 86
2021-02-26 05:00:00 11.5 6 Norte 17 Norte 0 -- -- 83
2021-02-26 04:00:00 11.6 11 Norte 18 Norte 0 -- -- 80
2021-02-26 03:00:00 11.3 6 Norte 11 Norte 0 -- -- 80
2021-02-26 02:00:00 11.6 5 Norte 13 Sudoeste 0 -- -- 76
2021-02-26 01:00:00 10.3 3 Nordeste 8 Sudeste 0 -- -- 83
2021-02-26 00:00:00 11.4 3 Nordeste 7 Este 0 -- -- 77
2021-02-25 23:00:00 12.4 5 Nordeste 8 Este 0 -- -- 76
2021-02-25 22:00:00 13 3 Este 16 Sur 0 -- -- 71
2021-02-25 21:00:00 13.4 11 Sudoeste 20 Sudoeste 0 -- -- 71
2021-02-25 20:00:00 14 8 Sur 17 Sur 0 -- -- 71
2021-02-25 19:00:00 15.2 3 Sudeste 28 Sudeste 0 -- -- 68
2021-02-25 18:00:00 16.2 12 Sur 23 Sur 0 -- -- 62
2021-02-25 17:00:00 16.3 13 Sudoeste 22 Sur 0 -- -- 64
2021-02-25 16:00:00 17.2 13 Sur 23 Sudoeste 0 -- -- 63
2021-02-25 15:00:00 17 14 Sur 28 Sur 0 -- -- 64
2021-02-25 14:00:00 17.5 18 Sur 29 Sur 0 -- -- 61
2021-02-25 13:00:00 18 15 Sudeste 34 Sudeste 0 -- -- 55
2021-02-25 12:00:00 17.4 18 Sudeste 37 Sudeste 0 -- -- 57
2021-02-25 11:00:00 16.7 23 Sudeste 39 Sudeste 0 -- -- 59
2021-02-25 10:00:00 15.9 22 Sudeste 46 Sudeste 0 -- -- 61
2021-02-25 09:00:00 14 25 Este 52 Este 0 -- -- 67
2021-02-25 08:00:00 13.9 30 Sudeste 57 Sudeste 0 -- -- 66
2021-02-25 07:00:00 14 30 Sudeste 48 Este 0 -- -- 65
2021-02-25 06:00:00 12.6 13 Sur 22 Sur 0 -- -- 73
2021-02-25 05:00:00 12.5 12 Sur 19 Sudoeste 0 -- -- 73
2021-02-25 04:00:00 12.5 3 Sur 26 Sur 0 -- -- 68
2021-02-25 03:00:00 13.2 11 Sudoeste 25 Sudeste 0 -- -- 64
2021-02-25 02:00:00 14.8 8 Nordeste 59 Sudeste 0 -- -- 56
2021-02-25 01:00:00 15.1 37 Sudeste 69 Sudeste 0 -- -- 54
2021-02-25 00:00:00 15.6 44 Sudeste 71 Sudeste 0 -- -- 50
2021-02-24 23:00:00 14.5 44 Sudeste 72 Sudeste 0 -- -- 57
2021-02-24 22:00:00 14.2 37 Sudeste 62 Este 0 -- -- 56
2021-02-24 21:00:00 15 25 Sudeste 45 Sudeste 0 -- -- 51
2021-02-24 20:00:00 15.4 9 Sur 41 Sudeste 0 -- -- 52
2021-02-24 19:00:00 15.7 10 Sur 42 Sudeste 0 -- -- 53
2021-02-24 18:00:00 17.5 18 Sudeste 32 Sudeste 0 -- -- 50
2021-02-24 17:00:00 18.7 18 Sudeste 43 Sudeste 0 -- -- 47
2021-02-24 16:00:00 18.7 19 Sudeste 56 Sudeste 0 -- -- 48
2021-02-24 15:00:00 18.1 34 Sudeste 54 Este 0 -- -- 52
2021-02-24 14:00:00 19 17 Sudeste 32 Sudeste 0 -- -- 49
2021-02-24 13:00:00 17.7 20 Este 44 Este 0 -- -- 56
2021-02-24 12:00:00 17.6 20 Sudeste 44 Este 0 -- -- 52
2021-02-24 11:00:00 15.5 7 Nordeste 26 Sudeste 0 -- -- 60
2021-02-24 10:00:00 13.1 5 Norte 14 Norte 0 -- -- 68
2021-02-24 09:00:00 10.7 8 Norte 18 Noroeste 0 -- -- 72
2021-02-24 08:00:00 7.9 3 Este 10 Este 0 -- -- 82
2021-02-24 07:00:00 9.2 7 Norte 15 Norte 0 -- -- 76
2021-02-24 06:00:00 9.1 9 Norte 21 Norte 0 -- -- 74
2021-02-24 05:00:00 9 6 Norte 15 Norte 0 -- -- 74
2021-02-24 04:00:00 10.3 10 Norte 26 Sudeste 0 -- -- 69
2021-02-24 03:00:00 11.7 4 Noroeste 26 Este 0 -- -- 64
2021-02-24 02:00:00 11.7 4 Este 23 Este 0 -- -- 64
2021-02-24 01:00:00 11.3 5 Noroeste 14 Norte 0 -- -- 62
2021-02-24 00:00:00 11.4 4 Oeste 24 Este 0 -- -- 57
2021-02-23 23:00:00 9.9 9 Sudeste 18 Sudeste 0 -- -- 65
2021-02-23 22:00:00 8.9 4 Norte 10 Norte 0 -- -- 74
2021-02-23 21:00:00 9.8 4 Sudeste 8 Nordeste 0 -- -- 70
2021-02-23 20:00:00 11.3 2 Este 17 Sur 0 -- -- 65
2021-02-23 19:00:00 14.6 9 Sur 22 Sur 0 -- -- 54
2021-02-23 18:00:00 16.4 14 Sudeste 25 Sudeste 0 -- -- 49
2021-02-23 17:00:00 17.2 16 Sudeste 31 Sudeste 0 -- -- 45
2021-02-23 16:00:00 17.3 17 Sudeste 37 Sur 0 -- -- 47
2021-02-23 15:00:00 17.2 20 Sur 33 Sur 0 -- -- 47
2021-02-23 14:00:00 17.1 17 Sur 40 Sur 0 -- -- 41
2021-02-23 13:00:00 16.9 15 Sudeste 28 Sudeste 0 -- -- 44
2021-02-23 12:00:00 14.7 2 Norte 9 Norte 0 -- -- 54
2021-02-23 11:00:00 11.2 5 Norte 8 Norte 0 -- -- 73
2021-02-23 10:00:00 7.8 0 Calma 5 Sudoeste 0 -- -- 90
2021-02-23 09:00:00 4.2 0 Calma 8 Este 0 -- -- 95
2021-02-23 08:00:00 4 4 Este 9 Nordeste 0 -- -- 96
2021-02-23 07:00:00 3.8 0 Calma 9 Este 0 -- -- 96
2021-02-23 06:00:00 4.5 4 Este 8 Sudeste 0 -- -- 95
2021-02-23 05:00:00 4.9 0 Calma 9 Este 0 -- -- 95
2021-02-23 04:00:00 4.9 2 Sudeste 10 Este 0 -- -- 94
2021-02-23 03:00:00 5.4 4 Sudeste 5 Sudeste 0 -- -- 94
2021-02-23 02:00:00 5.8 2 Nordeste 12 Este 0 -- -- 93
2021-02-23 01:00:00 6.4 3 Este 6 Este 0 -- -- 94
2021-02-23 00:00:00 6.7 2 Nordeste 9 Este 0 -- -- 93
2021-02-22 23:00:00 7.2 3 Este 10 Este 0 -- -- 88
2021-02-22 22:00:00 8.3 4 Este 9 Este 0 -- -- 86
2021-02-22 21:00:00 9.1 3 Nordeste 6 Este 0 -- -- 83
2021-02-22 20:00:00 10 2 Este 6 Nordeste 0 -- -- 80
2021-02-22 19:00:00 12.3 2 Norte 9 Noroeste 0 -- -- 71
2021-02-22 18:00:00 13.6 4 Oeste 15 Noroeste 0 -- -- 63
2021-02-22 17:00:00 13.1 3 Noroeste 19 Oeste 0 -- -- 63
2021-02-22 16:00:00 13.2 7 Noroeste 17 Noroeste 0 -- -- 63
2021-02-22 15:00:00 12.7 5 Noroeste 19 Noroeste 0 -- -- 62
2021-02-22 14:00:00 13.8 10 Noroeste 23 Oeste 0 -- -- 56
2021-02-22 13:00:00 13.4 9 Oeste 18 Oeste 0 -- -- 60
2021-02-22 12:00:00 12.5 8 Noroeste 13 Oeste 0 -- -- 63
2021-02-22 11:00:00 10.1 3 Sudoeste 6 Sudoeste 0 -- -- 82
2021-02-22 10:00:00 7.3 0 Calma 3 Este 0 -- -- 90
2021-02-22 09:00:00 4.7 2 Sudeste 6 Este 0 -- -- 97
2021-02-22 08:00:00 3.5 3 Sudeste 5 Sudeste 0 -- -- 95
2021-02-22 07:00:00 4.4 2 Nordeste 4 Nordeste 0 -- -- 95
2021-02-22 06:00:00 4.8 0 Calma 4 Este 0 -- -- 94
2021-02-22 05:00:00 5.4 2 Este 3 Nordeste 0 -- -- 93
2021-02-22 04:00:00 6.2 0 Calma 9 Norte 0 -- -- 89
2021-02-22 03:00:00 7.3 4 Norte 12 Nordeste 0 -- -- 86
2021-02-22 02:00:00 7.9 5 Noroeste 15 Noroeste 0 -- -- 85
2021-02-22 01:00:00 9 7 Noroeste 17 Norte 0 -- -- 82
2021-02-22 00:00:00 8.9 7 Norte 16 Noroeste 0 -- -- 82
2021-02-21 23:00:00 8.7 6 Norte 13 Noroeste 0 -- -- 80
2021-02-21 22:00:00 8.8 6 Noroeste 17 Oeste 0 -- -- 87
2021-02-21 21:00:00 9.5 4 Noroeste 10 Noroeste 0 -- -- 89
2021-02-21 20:00:00 9.1 4 Noroeste 23 Norte 0 -- -- 89
2021-02-21 19:00:00 10 9 Noroeste 24 Oeste 0.2 -- -- 85
2021-02-21 18:00:00 9.9 11 Oeste 22 Oeste 0 -- -- 85
2021-02-21 17:00:00 9.2 8 Noroeste 29 Oeste 0.8 -- -- 92
2021-02-21 16:00:00 9.5 7 Oeste 23 Noroeste 1 -- -- 93
2021-02-21 15:00:00 10.1 8 Oeste 16 Sudoeste 0 -- -- 89
2021-02-21 14:00:00 9.9 5 Sudoeste 14 Noroeste 1.2 -- -- 90
2021-02-21 13:00:00 10.1 9 Oeste 26 Sudoeste 3 -- -- 91
2021-02-21 12:00:00 10.5 12 Sur 33 Sur 2.8 -- -- 90
2021-02-21 11:00:00 11 10 Sur 38 Sudoeste 1.8 -- -- 90
2021-02-21 10:00:00 11.7 13 Sur 45 Sudeste 1.6 -- -- 86
2021-02-21 09:00:00 14.1 27 Sur 53 Sudeste 0 -- -- 65
2021-02-21 08:00:00 14.4 26 Sudeste 54 Sudeste 0 -- -- 61
2021-02-21 07:00:00 13.4 19 Sudeste 38 Sudeste 0 -- -- 66
2021-02-21 06:00:00 13 18 Sudeste 30 Este 0 -- -- 70
2021-02-21 05:00:00 13.6 14 Sudeste 27 Sudeste 0 -- -- 67
2021-02-21 04:00:00 13.8 12 Sur 36 Sudeste 0 -- -- 63
2021-02-21 03:00:00 15 23 Sudeste 54 Sudeste 0 -- -- 53
2021-02-21 02:00:00 14.7 37 Sudeste 55 Sudeste 0 -- -- 55
2021-02-21 01:00:00 13.5 18 Sudoeste 36 Sudoeste 0 -- -- 65
2021-02-21 00:00:00 13.7 21 Sur 41 Sur 0 -- -- 64
2021-02-20 23:00:00 13.7 21 Sur 37 Sur 0 -- -- 64
2021-02-20 22:00:00 15.6 29 Sudeste 47 Sudeste 0 -- -- 53
2021-02-20 21:00:00 14 10 Sur 30 Sudeste 0 -- -- 66
2021-02-20 20:00:00 13.8 12 Sudoeste 29 Sur 0 -- -- 68
2021-02-20 19:00:00 13.9 21 Sur 39 Sudoeste 0 -- -- 72
2021-02-20 18:00:00 15.9 20 Sur 32 Sur 0 -- -- 68
2021-02-20 17:00:00 17 16 Sur 32 Sur 0 -- -- 62
2021-02-20 16:00:00 18.1 18 Sur 31 Sur 0 -- -- 60
2021-02-20 15:00:00 18.6 18 Sur 35 Sudeste 0 -- -- 58
2021-02-20 14:00:00 18.4 21 Sur 38 Sur 0 -- -- 57
2021-02-20 13:00:00 18.8 18 Sur 40 Sur 0 -- -- 55
2021-02-20 12:00:00 17.9 22 Sur 37 Sudeste 0 -- -- 53
2021-02-20 11:00:00 17.3 19 Sur 40 Sur 0 -- -- 49
2021-02-20 10:00:00 14.9 18 Sur 37 Sur 0 -- -- 51
2021-02-20 09:00:00 13.5 17 Sudeste 34 Sur 0 -- -- 52
2021-02-20 08:00:00 12.4 17 Sur 39 Este 0 -- -- 61
2021-02-20 07:00:00 12.3 15 Sur 29 Sudeste 0 -- -- 57
2021-02-20 06:00:00 12.2 10 Sur 26 Sudeste 0 -- -- 60
2021-02-20 05:00:00 11.7 15 Sur 23 Sur 0 -- -- 67
2021-02-20 04:00:00 12.2 10 Sur 27 Sur 0 -- -- 59
2021-02-20 03:00:00 13.9 16 Sudeste 42 Sudeste 0 -- -- 52
2021-02-20 02:00:00 12 11 Sur 21 Sur 0 -- -- 59
2021-02-20 01:00:00 10.2 4 Sur 23 Sur 0 -- -- 76
2021-02-20 00:00:00 10.5 15 Sudeste 24 Sudeste 0 -- -- 82
2021-02-19 23:00:00 11.4 8 Este 15 Norte 0 -- -- 84
2021-02-19 22:00:00 11.9 9 Norte 17 Norte 0 -- -- 90
2021-02-19 21:00:00 11.9 7 Norte 14 Sudeste 0 -- -- 80
2021-02-19 20:00:00 14 8 Este 14 Este 0 -- -- 69
2021-02-19 19:00:00 16.6 6 Sur 11 Noroeste 0 -- -- 55
2021-02-19 18:00:00 18.7 5 Noroeste 19 Sur 0 -- -- 66
2021-02-19 17:00:00 20.9 12 Sudoeste 22 Sudoeste 0 -- -- 37
2021-02-19 16:00:00 18.6 6 Noroeste 14 Noroeste 0 -- -- 63
2021-02-19 15:00:00 17.5 10 Noroeste 17 Noroeste 0 -- -- 72
2021-02-19 14:00:00 16.5 4 Norte 12 Noroeste 0 -- -- 75
2021-02-19 13:00:00 14.8 5 Noroeste 12 Oeste 0 -- -- 80
2021-02-19 12:00:00 14.2 4 Noroeste 10 Oeste 0 -- -- 76
2021-02-19 11:00:00 12.8 3 Oeste 6 Oeste 0 -- -- 73
2021-02-19 10:00:00 10 3 Sudoeste 7 Sudeste 0 -- -- 75
2021-02-19 09:00:00 6.3 0 Calma 8 Este 0 -- -- 83
2021-02-19 08:00:00 5.9 0 Calma 3 Este 0 -- -- 81
2021-02-19 07:00:00 6.1 0 Calma 6 Norte 0 -- -- 83
2021-02-19 06:00:00 6.2 2 Este 4 Este 0 -- -- 81
2021-02-19 05:00:00 5.5 0 Calma 6 Sudeste 0 -- -- 91
2021-02-19 04:00:00 5.1 0 Calma 4 Este 0 -- -- 93
2021-02-19 03:00:00 5.3 2 Sudeste 9 Este 0 -- -- 90
2021-02-19 02:00:00 6.3 4 Este 10 Este 0 -- -- 88
2021-02-19 01:00:00 7.7 4 Este 6 Noroeste 0 -- -- 89
2021-02-19 00:00:00 7.6 3 Norte 8 Este 0 -- -- 90
2021-02-18 23:00:00 8.9 0 Calma 10 Este 0 -- -- 89
2021-02-18 22:00:00 9.8 3 Este 6 Sudeste 0 -- -- 90
2021-02-18 21:00:00 11.2 2 Este 9 Este 0 -- -- 90
2021-02-18 20:00:00 12.9 5 Este 8 Este 0 -- -- 86
2021-02-18 19:00:00 16.1 0 Calma 4 Sudoeste 0 -- -- 76
2021-02-18 18:00:00 17.6 2 Sudoeste 8 Oeste 0 -- -- 71
2021-02-18 17:00:00 17.4 3 Oeste 10 Sudoeste 0 -- -- 71
2021-02-18 16:00:00 15.6 4 Noroeste 12 Noroeste 0 -- -- 78
2021-02-18 15:00:00 14.5 6 Oeste 12 Noroeste 0 -- -- 82
2021-02-18 14:00:00 13.3 5 Noroeste 10 Oeste 0 -- -- 85
2021-02-18 13:00:00 12.3 4 Noroeste 10 Noroeste 0 -- -- 91
2021-02-18 12:00:00 11.7 7 Noroeste 13 Noroeste 0 -- -- 92
2021-02-18 11:00:00 12.2 4 Noroeste 8 Noroeste 0 -- -- 88
2021-02-18 10:00:00 9.2 3 Noroeste 6 Noroeste 0 -- -- 95
2021-02-18 09:00:00 7.5 0 Calma 7 Este 0 -- -- 97
2021-02-18 08:00:00 6.4 0 Calma 8 Sudeste 0 -- -- 96
2021-02-18 07:00:00 7.5 0 Calma 4 Nordeste 0 -- -- 96
2021-02-18 06:00:00 8.2 2 Este 17 Este 0 -- -- 95
2021-02-18 05:00:00 8.4 4 Este 9 Este 0 -- -- 94
2021-02-18 04:00:00 9.2 3 Este 6 Este 0 -- -- 96
2021-02-18 03:00:00 8.3 0 Calma 4 Noroeste 0 -- -- 95
2021-02-18 02:00:00 9 0 Calma 6 Este 0 -- -- 92
2021-02-18 01:00:00 9.4 0 Calma 9 Este 0 -- -- 93
2021-02-18 00:00:00 10.5 9 Este 12 Este 0 -- -- 91
2021-02-17 23:00:00 10.7 0 Calma 9 Este 0 -- -- 89
2021-02-17 22:00:00 11.6 3 Nordeste 8 Este 0 -- -- 88
2021-02-17 21:00:00 13 5 Este 10 Este 0 -- -- 83
2021-02-17 20:00:00 14.7 2 Noroeste 5 Este 0 -- -- 78
2021-02-17 19:00:00 17.6 0 Calma 7 Oeste 0 -- -- 67
2021-02-17 18:00:00 19.5 5 Oeste 14 Oeste 0 -- -- 59
2021-02-17 17:00:00 20.1 8 Oeste 17 Noroeste 0 -- -- 61
2021-02-17 16:00:00 20.6 8 Noroeste 15 Oeste 0 -- -- 58
2021-02-17 15:00:00 20.2 8 Noroeste 14 Noroeste 0 -- -- 56
2021-02-17 14:00:00 19.6 6 Noroeste 12 Noroeste 0 -- -- 61
2021-02-17 13:00:00 18.4 4 Noroeste 7 Noroeste 0 -- -- 62
2021-02-17 12:00:00 15.9 3 Noroeste 5 Noroeste 0 -- -- 61
2021-02-17 11:00:00 12.8 0 Calma 3 Sur 0 -- -- 77
2021-02-17 10:00:00 9.9 0 Calma 3 Sur 0 -- -- 84
2021-02-17 09:00:00 6.5 0 Calma 9 Este 0 -- -- 91
2021-02-17 08:00:00 5.8 3 Este 8 Este 0 -- -- 89
2021-02-17 07:00:00 6.3 2 Nordeste 5 Este 0 -- -- 92
2021-02-17 06:00:00 6.3 4 Este 5 Este 0 -- -- 91
2021-02-17 05:00:00 6.8 0 Calma 4 Sudeste 0 -- -- 93
2021-02-17 04:00:00 7 0 Calma 7 Sudeste 0 -- -- 92
2021-02-17 03:00:00 8.3 6 Este 8 Este 0 -- -- 93
2021-02-17 02:00:00 8.3 0 Calma 6 Este 0 -- -- 93
2021-02-17 01:00:00 8.7 2 Norte 5 Este 0 -- -- 93
2021-02-17 00:00:00 9.2 0 Calma 5 Este 0 -- -- 92
2021-02-16 23:00:00 9.8 3 Nordeste 8 Sudeste 0 -- -- 90
2021-02-16 22:00:00 10.7 6 Sudeste 9 Este 0 -- -- 88
2021-02-16 21:00:00 12.5 4 Este 8 Este 0 -- -- 83
2021-02-16 20:00:00 13.9 2 Sudeste 9 Sur 0 -- -- 77
2021-02-16 19:00:00 16.5 5 Sur 10 Sur 0 -- -- 69
2021-02-16 18:00:00 19.4 7 Sur 13 Sudoeste 0 -- -- 59
2021-02-16 17:00:00 20.5 8 Sudoeste 15 Sudoeste 0 -- -- 55
2021-02-16 16:00:00 20.4 10 Sudoeste 22 Sudoeste 0 -- -- 52
2021-02-16 15:00:00 20.3 15 Sudoeste 22 Sudoeste 0 -- -- 52
2021-02-16 14:00:00 20.2 9 Sudeste 21 Sur 0 -- -- 55
2021-02-16 13:00:00 19.4 8 Sur 23 Este 0 -- -- 51
2021-02-16 12:00:00 17.2 13 Este 28 Este 0 -- -- 54
2021-02-16 11:00:00 15.2 16 Este 31 Este 0 -- -- 58
2021-02-16 10:00:00 13.2 19 Este 37 Este 0 -- -- 63
2021-02-16 09:00:00 11.3 17 Sudeste 31 Este 0 -- -- 67
2021-02-16 08:00:00 10.3 13 Sur 30 Sudeste 0 -- -- 67
2021-02-16 07:00:00 10.6 14 Sur 25 Sur 0 -- -- 63
2021-02-16 06:00:00 11.4 13 Sur 34 Este 0 -- -- 56
2021-02-16 05:00:00 11 13 Sur 25 Sudeste 0 -- -- 57
2021-02-16 04:00:00 11.1 10 Sur 17 Sur 0 -- -- 56
2021-02-16 03:00:00 10.1 3 Oeste 14 Sur 0 -- -- 59
2021-02-16 02:00:00 11.6 6 Sur 18 Este 0 -- -- 52
2021-02-16 01:00:00 13.7 15 Este 33 Este 0 -- -- 45
2021-02-16 00:00:00 13.7 14 Este 30 Este 0 -- -- 44
2021-02-15 23:00:00 13.4 10 Sudeste 29 Este 0 -- -- 46
2021-02-15 22:00:00 13.5 12 Sudeste 24 Sudeste 0 -- -- 47
2021-02-15 21:00:00 13.6 7 Sur 22 Este 0 -- -- 50
2021-02-15 20:00:00 13.6 6 Sur 17 Este 0 -- -- 54
2021-02-15 19:00:00 15.1 12 Sur 26 Sur 0 -- -- 54
2021-02-15 18:00:00 17.6 14 Sur 31 Sur 0 -- -- 48
2021-02-15 17:00:00 18.3 19 Sur 38 Sudeste 0 -- -- 49
2021-02-15 16:00:00 19.9 13 Sur 49 Sur 0 -- -- 43
2021-02-15 15:00:00 19.3 21 Sur 40 Sur 0 -- -- 42
2021-02-15 14:00:00 19 19 Sur 40 Sur 0 -- -- 43
2021-02-15 13:00:00 18.2 27 Sudeste 44 Sudeste 0 -- -- 46
2021-02-15 12:00:00 18.3 17 Sudeste 34 Sudeste 0 -- -- 45
2021-02-15 11:00:00 16.1 3 Norte 12 Norte 0 -- -- 53
2021-02-15 10:00:00 13.1 6 Noroeste 11 Noroeste 0 -- -- 53
2021-02-15 09:00:00 10.2 0 Calma 5 Noroeste 0 -- -- 69
2021-02-15 08:00:00 10.9 3 Norte 12 Sur 0 -- -- 59
2021-02-15 07:00:00 12.3 4 Nordeste 13 Este 0 -- -- 55
2021-02-15 06:00:00 12.4 5 Sudeste 15 Este 0 -- -- 55
2021-02-15 05:00:00 12.5 3 Noroeste 9 Sudeste 0 -- -- 52
2021-02-15 04:00:00 13.3 3 Norte 21 Sudeste 0 -- -- 46
2021-02-15 03:00:00 13.7 4 Sudeste 27 Este 0 -- -- 45
2021-02-15 02:00:00 13.9 4 Sudeste 23 Este 0 -- -- 45
2021-02-15 01:00:00 13.9 5 Sudeste 19 Sudeste 0 -- -- 46
2021-02-15 00:00:00 13.7 4 Sudeste 15 Sudeste 0 -- -- 47
2021-02-14 23:00:00 14.4 6 Sudeste 22 Sudeste 0 -- -- 44
2021-02-14 22:00:00 14.6 4 Este 21 Este 0 -- -- 45
2021-02-14 21:00:00 14.6 7 Sudeste 18 Sudeste 0 -- -- 43
2021-02-14 20:00:00 14.6 7 Sudeste 21 Sudeste 0 -- -- 46
2021-02-14 19:00:00 17 17 Sudeste 26 Sudeste 0 -- -- 40
2021-02-14 18:00:00 19.4 8 Sudeste 27 Sudeste 0 -- -- 39
2021-02-14 17:00:00 20.9 7 Sudeste 31 Sur 0 -- -- 38
2021-02-14 16:00:00 21.4 14 Sur 27 Sudeste 0 -- -- 36
2021-02-14 15:00:00 21.5 16 Sudeste 30 Sudeste 0 -- -- 37
2021-02-14 14:00:00 21.5 15 Sudeste 27 Sudeste 0 -- -- 35
2021-02-14 13:00:00 21.2 13 Sudeste 24 Sudeste 0 -- -- 39
2021-02-14 12:00:00 17.5 3 Noroeste 6 Noroeste 0 -- -- 51
2021-02-14 11:00:00 13.9 3 Norte 6 Sudeste 0 -- -- 52
2021-02-14 10:00:00 11.4 4 Sudeste 8 Sudeste 0 -- -- 63
2021-02-14 09:00:00 6.9 3 Noroeste 10 Este 0 -- -- 67
2021-02-14 08:00:00 6.5 4 Sudeste 8 Este 0 -- -- 68
2021-02-14 07:00:00 7.3 3 Sudeste 8 Este 0 -- -- 64
2021-02-14 06:00:00 6.4 2 Sudeste 13 Este 0 -- -- 68
2021-02-14 05:00:00 7.1 4 Este 13 Este 0 -- -- 65
2021-02-14 04:00:00 6.8 4 Este 7 Sudeste 0 -- -- 69
2021-02-14 03:00:00 7.5 3 Este 9 Sudeste 0 -- -- 66
2021-02-14 02:00:00 7.4 2 Sudeste 9 Norte 0 -- -- 70
2021-02-14 01:00:00 7.3 3 Nordeste 13 Este 0 -- -- 71
2021-02-14 00:00:00 7.7 0 Calma 11 Sudeste 0 -- -- 71
2021-02-13 23:00:00 8.6 4 Sudeste 13 Este 0 -- -- 71
2021-02-13 22:00:00 9.6 3 Este 9 Este 0 -- -- 70
2021-02-13 21:00:00 11.4 2 Norte 11 Este 0 -- -- 71
2021-02-13 20:00:00 13.6 2 Nordeste 12 Este 0 -- -- 69
2021-02-13 19:00:00 17.3 3 Noroeste 8 Sudoeste 0 -- -- 60
2021-02-13 18:00:00 20.5 7 Sur 12 Sur 0 -- -- 52
2021-02-13 17:00:00 20.3 7 Noroeste 17 Noroeste 0 -- -- 43
2021-02-13 16:00:00 20.5 0 Calma 19 Sudoeste 0 -- -- 59
2021-02-13 15:00:00 19.3 8 Sudoeste 15 Sudoeste 0 -- -- 57
2021-02-13 14:00:00 18.8 7 Sudoeste 13 Sudoeste 0 -- -- 58
2021-02-13 13:00:00 16.9 8 Sudoeste 12 Sudoeste 0 -- -- 61
2021-02-13 08:00:00 -- -- -- -- -- -- -- -- --
2021-02-13 07:00:00 4.7 2 Este 9 Este 0 -- -- 95
2021-02-13 06:00:00 5 2 Sudeste 10 Este 0 -- -- 95
2021-02-13 05:00:00 6 0 Calma 10 Este 0 -- -- 92
2021-02-13 04:00:00 6.6 5 Sudeste 8 Este 0 -- -- 92
2021-02-13 03:00:00 7 0 Calma 12 Este 0 -- -- 90
2021-02-13 02:00:00 8 6 Este 12 Este 0 -- -- 87
2021-02-13 01:00:00 9.3 4 Este 8 Este 0 -- -- 82
2021-02-13 00:00:00 9.6 3 Sudoeste 4 Sudoeste 0 -- -- 84
2021-02-12 23:00:00 9.9 0 Calma 4 Noroeste 0 -- -- 84
2021-02-12 22:00:00 10.6 3 Norte 8 Nordeste 0 -- -- 80
2021-02-12 21:00:00 10.9 3 Norte 8 Norte 0 -- -- 82
2021-02-12 20:00:00 12 3 Nordeste 10 Norte 0 -- -- 81
2021-02-12 19:00:00 14.4 4 Norte 18 Noroeste 0 -- -- 71
2021-02-12 18:00:00 16.5 10 Noroeste 22 Oeste 0 -- -- 65
2021-02-12 17:00:00 17 10 Noroeste 26 Noroeste 0 -- -- 61
2021-02-12 16:00:00 17.4 11 Noroeste 24 Oeste 0 -- -- 63
2021-02-12 15:00:00 17.1 11 Noroeste 22 Oeste 0 -- -- 56
2021-02-12 14:00:00 16.9 10 Noroeste 21 Noroeste 0 -- -- 67
2021-02-12 13:00:00 16.1 12 Noroeste 22 Oeste 0 -- -- 77
2021-02-12 12:00:00 15.7 7 Noroeste 22 Oeste 0 -- -- 80
2021-02-12 11:00:00 14.9 4 Oeste 13 Noroeste 0 -- -- 92
2021-02-12 10:00:00 13.3 6 Noroeste 20 Oeste 1 -- -- 98
2021-02-12 09:00:00 13.1 3 Norte 8 Noroeste 0.8 -- -- 97
2021-02-12 08:00:00 13.1 3 Noroeste 9 Noroeste 0 -- -- 96
2021-02-12 07:00:00 13 3 Noroeste 6 Noroeste 0.2 -- -- 96
2021-02-12 06:00:00 12.7 3 Noroeste 6 Sudoeste 0 -- -- 96
2021-02-12 05:00:00 12.7 4 Norte 9 Norte 0 -- -- 96
2021-02-12 04:00:00 12.6 3 Norte 5 Norte 0 -- -- 96
2021-02-12 03:00:00 12.1 3 Este 5 Este 0 -- -- 96
2021-02-12 02:00:00 11.7 2 Noroeste 5 Este 0 -- -- 95
2021-02-12 01:00:00 11.7 0 Calma 17 Este 0 -- -- 94
2021-02-12 00:00:00 12 7 Este 14 Este 0 -- -- 95
2021-02-11 23:00:00 12.4 0 Calma 4 Noroeste 0 -- -- 95
2021-02-11 22:00:00 12.9 3 Noroeste 7 Noroeste 0 -- -- 94
2021-02-11 21:00:00 13.9 0 Calma 6 Noroeste 0 -- -- 92
2021-02-11 20:00:00 14.4 2 Noroeste 8 Noroeste 0 -- -- 89
2021-02-11 19:00:00 15.3 3 Oeste 11 Oeste 0 -- -- 85
2021-02-11 18:00:00 17.3 6 Noroeste 11 Oeste 0 -- -- 73
2021-02-11 17:00:00 17.7 4 Este 12 Norte 0 -- -- 71
2021-02-11 16:00:00 16.9 5 Noroeste 11 Noroeste 0 -- -- 78
2021-02-11 15:00:00 16.4 5 Noroeste 10 Noroeste 0 -- -- 82
2021-02-11 14:00:00 16.1 5 Noroeste 10 Oeste 0 -- -- 84
2021-02-11 13:00:00 15.9 4 Oeste 6 Oeste 0 -- -- 84
2021-02-11 12:00:00 15.5 2 Noroeste 8 Sudeste 0 -- -- 87
2021-02-11 11:00:00 14 2 Norte 6 Noroeste 0 -- -- 98
2021-02-11 10:00:00 13.3 0 Calma 4 Norte 0 -- -- 98
2021-02-11 09:00:00 12.9 0 Calma 6 Este 0 -- -- 98
2021-02-11 08:00:00 12.8 5 Este 6 Sudeste 0.2 -- -- 98
2021-02-11 07:00:00 12.8 0 Calma 4 Sudeste 0.4 -- -- 98
2021-02-11 06:00:00 12.9 0 Calma 5 Este 0.2 -- -- 97
2021-02-11 05:00:00 12.8 2 Este 4 Sudeste 0.2 -- -- 97
2021-02-11 04:00:00 13 3 Sudeste 5 Este 0.4 -- -- 97
2021-02-11 03:00:00 13 3 Este 4 Este 0.2 -- -- 97
2021-02-11 02:00:00 13 0 Calma 8 Sudoeste 0.4 -- -- 97
2021-02-11 01:00:00 13.2 0 Calma 3 Este 0.2 -- -- 96
2021-02-11 00:00:00 13.2 0 Calma 5 Sudeste 0 -- -- 95
2021-02-10 23:00:00 13.3 0 Calma 5 Este 0 -- -- 95
2021-02-10 22:00:00 13.4 2 Este 9 Oeste 0 -- -- 95
2021-02-10 21:00:00 13.5 0 Calma 11 Sudoeste 0.2 -- -- 95
2021-02-10 20:00:00 13.4 4 Sudoeste 14 Oeste 0.4 -- -- 95
2021-02-10 19:00:00 13.5 9 Oeste 21 Sudoeste 0.4 -- -- 95
2021-02-10 18:00:00 13.7 10 Oeste 26 Oeste 1.2 -- -- 95
2021-02-10 17:00:00 13.8 13 Oeste 31 Sudoeste 0.8 -- -- 96
2021-02-10 16:00:00 13.8 17 Oeste 28 Oeste 0.4 -- -- 96
2021-02-10 15:00:00 13.7 17 Oeste 31 Oeste 1 -- -- 96
2021-02-10 14:00:00 13.8 15 Oeste 35 Oeste 1 -- -- 96
2021-02-10 13:00:00 13.7 14 Oeste 36 Oeste 0.8 -- -- 96
2021-02-10 12:00:00 13.6 15 Oeste 31 Oeste 0.6 -- -- 96
2021-02-10 11:00:00 13.3 15 Oeste 37 Noroeste 0.4 -- -- 95
2021-02-10 10:00:00 13.1 14 Oeste 31 Oeste 0.4 -- -- 94
2021-02-10 09:00:00 13.2 13 Oeste 42 Oeste 0.2 -- -- 94
2021-02-10 08:00:00 13.2 14 Oeste 44 Oeste 0.8 -- -- 94
2021-02-10 07:00:00 13.1 17 Oeste 34 Sudoeste 0.2 -- -- 95
2021-02-10 06:00:00 12.7 9 Oeste 33 Sudoeste 0 -- -- 95
2021-02-10 05:00:00 12.1 9 Oeste 24 Oeste 1.6 -- -- 96
2021-02-10 04:00:00 12 8 Noroeste 23 Oeste 0.2 -- -- 95
2021-02-10 03:00:00 12.1 10 Oeste 24 Oeste 0 -- -- 94
2021-02-10 02:00:00 11.9 10 Oeste 33 Sudoeste 1 -- -- 95
2021-02-10 01:00:00 11.6 12 Noroeste 40 Oeste 2.8 -- -- 95
2021-02-10 00:00:00 13 15 Oeste 41 Oeste 0 -- -- 93
2021-02-09 23:00:00 12.2 14 Noroeste 40 Oeste 3.6 -- -- 95
2021-02-09 22:00:00 12.9 14 Oeste 35 Sudoeste 0.8 -- -- 93
2021-02-09 21:00:00 12.9 17 Oeste 35 Oeste 0.6 -- -- 92
2021-02-09 20:00:00 13 15 Oeste 34 Sudoeste 0 -- -- 93
2021-02-09 19:00:00 12.8 12 Oeste 34 Oeste 0.4 -- -- 92
2021-02-09 18:00:00 13 13 Sudoeste 31 Sudoeste 0.2 -- -- 91
2021-02-09 17:00:00 13 15 Sudoeste 37 Oeste 2.6 -- -- 92
2021-02-09 16:00:00 13.9 16 Sudoeste 31 Sudoeste 0 -- -- 87
2021-02-09 15:00:00 14.4 15 Sudoeste 31 Sudoeste 0 -- -- 82
2021-02-09 14:00:00 13.8 14 Sudoeste 37 Sudoeste 0.8 -- -- 86
2021-02-09 13:00:00 13.5 15 Oeste 38 Sudoeste 0.2 -- -- 86
2021-02-09 12:00:00 13.4 11 Sudoeste 25 Sudoeste 0.4 -- -- 84
2021-02-09 11:00:00 12 11 Sudoeste 27 Sudoeste 0.4 -- -- 90
2021-02-09 10:00:00 12.6 16 Sur 33 Sudeste 0 -- -- 79
2021-02-09 09:00:00 11.6 13 Sur 29 Sur 0.2 -- -- 89
2021-02-09 08:00:00 11.2 8 Sur 18 Sudeste 0.4 -- -- 91
2021-02-09 07:00:00 11.1 3 Sudeste 9 Oeste 0.4 -- -- 90
2021-02-09 06:00:00 11.4 4 Sudeste 15 Sur 0 -- -- 80
2021-02-09 05:00:00 11.2 9 Sudeste 16 Sudeste 0 -- -- 82
2021-02-09 04:00:00 11.1 8 Sudeste 16 Sudoeste 0 -- -- 85
2021-02-09 03:00:00 11.3 5 Sur 10 Sudeste 0 -- -- 89
2021-02-09 02:00:00 11.1 2 Sur 8 Sur 0 -- -- 89
2021-02-09 01:00:00 11.3 4 Sur 10 Sudeste 0 -- -- 89
2021-02-09 00:00:00 11 2 Este 8 Sudoeste 0 -- -- 90
2021-02-08 23:00:00 11.4 3 Sudoeste 15 Sudoeste 0 -- -- 88
2021-02-08 22:00:00 11.8 8 Oeste 19 Sudoeste 0 -- -- 86
2021-02-08 21:00:00 12.1 8 Oeste 18 Oeste 0 -- -- 86
2021-02-08 20:00:00 12.1 4 Oeste 17 Sudoeste 0 -- -- 85
2021-02-08 19:00:00 12.4 6 Oeste 27 Oeste 0 -- -- 83
2021-02-08 18:00:00 13.7 16 Oeste 33 Oeste 0 -- -- 74
2021-02-08 17:00:00 15 12 Oeste 31 Oeste 0 -- -- 70
2021-02-08 16:00:00 14 15 Oeste 31 Oeste 0 -- -- 68
2021-02-08 15:00:00 13.9 13 Noroeste 31 Oeste 0 -- -- 70
2021-02-08 14:00:00 14.3 19 Oeste 37 Noroeste 0 -- -- 63
2021-02-08 13:00:00 13.9 12 Oeste 26 Oeste 0 -- -- 72
2021-02-08 12:00:00 13.6 12 Oeste 30 Noroeste 0 -- -- 80
2021-02-08 11:00:00 11.8 8 Noroeste 22 Norte 0 -- -- 87
2021-02-08 10:00:00 10.7 10 Norte 18 Norte 0 -- -- 92
2021-02-08 09:00:00 10.3 8 Noroeste 30 Noroeste 2.2 -- -- 94
2021-02-08 08:00:00 11.9 14 Oeste 40 Oeste 5.6 -- -- 96
2021-02-08 07:00:00 12.3 19 Sudoeste 43 Sudoeste 4 -- -- 97
2021-02-08 06:00:00 11.7 23 Sur 41 Sur 3.6 -- -- 95
2021-02-08 05:00:00 11.4 24 Sur 52 Sur 2.6 -- -- 95
2021-02-08 04:00:00 11.4 18 Sur 38 Sur 0.4 -- -- 92
2021-02-08 03:00:00 11.1 10 Sudoeste 22 Sur 0 -- -- 93
2021-02-08 02:00:00 10.6 6 Sur 27 Oeste 0.2 -- -- 95
2021-02-08 01:00:00 10 6 Sur 14 Sur 0.6 -- -- 96
2021-02-08 00:00:00 9.7 5 Sudeste 12 Sur 0.8 -- -- 96
2021-02-07 23:00:00 9.5 4 Sudeste 11 Sudeste 0.4 -- -- 95
2021-02-07 22:00:00 9.3 4 Sudeste 14 Este 1.2 -- -- 94
2021-02-07 21:00:00 9.6 7 Este 11 Este 0 -- -- 88
2021-02-07 20:00:00 9.6 5 Este 7 Este 0 -- -- 82
2021-02-07 19:00:00 9.9 0 Calma 9 Noroeste 0 -- -- 79
2021-02-07 18:00:00 9.9 5 Noroeste 23 Noroeste 0 -- -- 74
2021-02-07 17:00:00 10.2 12 Oeste 25 Oeste 0 -- -- 71
2021-02-07 16:00:00 10 9 Oeste 32 Sudoeste 0 -- -- 75
2021-02-07 15:00:00 11.7 17 Oeste 31 Oeste 0 -- -- 73
2021-02-07 14:00:00 11 7 Noroeste 19 Oeste 0 -- -- 80
2021-02-07 13:00:00 10.1 8 Oeste 15 Noroeste 0 -- -- 87
2021-02-07 12:00:00 8.8 2 Oeste 17 Oeste 0 -- -- 95
2021-02-07 11:00:00 8.3 9 Noroeste 18 Oeste 0 -- -- 97
2021-02-07 10:00:00 8.6 3 Noroeste 15 Noroeste 0 -- -- 98
2021-02-07 09:00:00 8.4 7 Noroeste 15 Oeste 0 -- -- 98
2021-02-07 08:00:00 8.5 6 Noroeste 17 Oeste 0 -- -- 98
2021-02-07 07:00:00 8.5 10 Noroeste 19 Oeste 0.8 -- -- 98
2021-02-07 06:00:00 8.5 2 Noroeste 10 Oeste 0 -- -- 98
2021-02-07 05:00:00 8.6 4 Noroeste 9 Noroeste 0 -- -- 98
2021-02-07 04:00:00 8.5 4 Noroeste 9 Oeste 0.6 -- -- 97
2021-02-07 03:00:00 8.5 3 Oeste 17 Oeste 0.6 -- -- 96
2021-02-07 02:00:00 8.7 9 Oeste 21 Oeste 1.8 -- -- 95
2021-02-07 01:00:00 8.8 0 Calma 9 Oeste 0 -- -- 94
2021-02-07 00:00:00 9.1 4 Oeste 14 Sudoeste 0 -- -- 94
2021-02-06 23:00:00 8.9 4 Sudeste 16 Noroeste 3.2 -- -- 96
2021-02-06 22:00:00 9.6 7 Noroeste 17 Noroeste 1.4 -- -- 92
2021-02-06 21:00:00 10.3 6 Oeste 22 Oeste 0 -- -- 90
2021-02-06 20:00:00 10.4 5 Noroeste 14 Oeste 0.2 -- -- 91
2021-02-06 19:00:00 10.5 3 Oeste 18 Oeste 0.2 -- -- 90
2021-02-06 18:00:00 10.9 8 Sudoeste 24 Oeste 0.2 -- -- 87
2021-02-06 17:00:00 12 13 Oeste 29 Oeste 0 -- -- 78
2021-02-06 16:00:00 12.3 16 Oeste 33 Oeste 0 -- -- 76
2021-02-06 15:00:00 13.2 16 Oeste 35 Sudoeste 0 -- -- 77
2021-02-06 14:00:00 13.4 13 Sudoeste 31 Sudoeste 0.2 -- -- 79
2021-02-06 13:00:00 12.4 12 Sudoeste 25 Sudoeste 0 -- -- 81
2021-02-06 12:00:00 11.8 9 Oeste 19 Sudoeste 0 -- -- 87
2021-02-06 11:00:00 10.6 4 Sudoeste 15 Sudoeste 1 -- -- 92
2021-02-06 10:00:00 10.6 4 Sudoeste 14 Sur 0.4 -- -- 89
2021-02-06 09:00:00 10.2 5 Sur 12 Sur 0 -- -- 89
2021-02-06 08:00:00 10.2 6 Sur 15 Sur 0 -- -- 88
2021-02-06 07:00:00 10 5 Sudeste 20 Sudeste 0 -- -- 88
2021-02-06 06:00:00 9.7 2 Sur 17 Sudoeste 0 -- -- 93
2021-02-06 05:00:00 9.8 6 Sudoeste 13 Sudoeste 0 -- -- 94
2021-02-06 04:00:00 9.9 6 Sudoeste 25 Oeste 0 -- -- 94
2021-02-06 03:00:00 10.5 9 Sudoeste 26 Sur 0.8 -- -- 93
2021-02-06 02:00:00 10.7 15 Sur 27 Sur 1 -- -- 90
2021-02-06 01:00:00 10.4 15 Sudeste 39 Sudeste 1.2 -- -- 91
2021-02-06 00:00:00 11.3 21 Sudeste 44 Sudeste 0 -- -- 82
2021-02-05 23:00:00 11.3 15 Sudeste 40 Sudeste 0 -- -- 83
2021-02-05 22:00:00 11.3 18 Sudeste 35 Sudeste 1.6 -- -- 84
2021-02-05 21:00:00 10.8 12 Sur 42 Sudeste 5.4 -- -- 89
2021-02-05 20:00:00 11.9 23 Sudeste 41 Sur 0.2 -- -- 79
2021-02-05 19:00:00 12.4 24 Sudeste 46 Sudeste 0 -- -- 74
2021-02-05 18:00:00 12.4 16 Sudeste 44 Sudeste 0 -- -- 76
2021-02-05 17:00:00 12.5 22 Sudeste 36 Sudeste 0.2 -- -- 74
2021-02-05 16:00:00 12.9 12 Sudeste 36 Sur 0 -- -- 77
2021-02-05 15:00:00 13.5 9 Sudeste 18 Este 0 -- -- 83
2021-02-05 14:00:00 13.2 6 Sudeste 14 Oeste 0.4 -- -- 89
2021-02-05 13:00:00 14.4 6 Oeste 15 Oeste 0 -- -- 84
2021-02-05 12:00:00 14.3 2 Oeste 24 Sudeste 0 -- -- 82
2021-02-05 11:00:00 12.7 13 Sudeste 24 Este 0 -- -- 85
2021-02-05 10:00:00 11.7 7 Sudeste 16 Este 0 -- -- 92
2021-02-05 09:00:00 10.5 4 Este 6 Este 0 -- -- 96
2021-02-05 08:00:00 10 2 Este 8 Sudeste 0 -- -- 95
2021-02-05 07:00:00 10.3 3 Sur 4 Sudoeste 0 -- -- 95
2021-02-05 06:00:00 10.6 0 Calma 9 Sudeste 0 -- -- 94
2021-02-05 05:00:00 10.5 3 Este 5 Sudeste 0 -- -- 95
2021-02-05 04:00:00 10.4 2 Oeste 12 Norte 0 -- -- 92
2021-02-05 03:00:00 10.9 6 Este 21 Este 0 -- -- 89
2021-02-05 02:00:00 11.1 5 Este 10 Este 0 -- -- 91
2021-02-05 01:00:00 11.6 5 Sudeste 10 Este 0 -- -- 90
2021-02-05 00:00:00 12.5 2 Noroeste 14 Norte 0 -- -- 88
2021-02-04 23:00:00 13.1 4 Nordeste 19 Este 0 -- -- 87
2021-02-04 22:00:00 12.9 5 Nordeste 11 Nordeste 0 -- -- 89
2021-02-04 21:00:00 13.7 10 Sudeste 16 Sudeste 0 -- -- 87
2021-02-04 20:00:00 13.9 8 Norte 18 Norte 0 -- -- 85
2021-02-04 19:00:00 14.7 9 Este 15 Sudeste 0 -- -- 83
2021-02-04 18:00:00 15.8 5 Noroeste -- -- -- -- -- 79
2021-02-04 17:00:00 16.5 6 Noroeste 11 Noroeste 0 -- -- 77
2021-02-04 16:00:00 18.1 6 Sudoeste 18 Oeste 0 -- -- 68
2021-02-04 15:00:00 17.3 11 Sudoeste 19 Sudoeste 0 -- -- 70
2021-02-04 14:00:00 17.5 11 Sudoeste 22 Sudoeste 0 -- -- 71
2021-02-04 13:00:00 16.7 7 Sur 17 Sur 0 -- -- 74
2021-02-04 12:00:00 15.6 12 Sudoeste 23 Sur 0 -- -- 73
2021-02-04 11:00:00 13.7 11 Sudoeste 25 Sur 0 -- -- 76
2021-02-04 10:00:00 11.7 10 Sur 22 Sudeste 0 -- -- 81
2021-02-04 09:00:00 10.2 11 Sudeste 21 Este 0 -- -- 84
2021-02-04 08:00:00 10.4 10 Este 17 Este 0 -- -- 84
2021-02-04 07:00:00 11.2 10 Este 17 Este 0 -- -- 80
2021-02-04 06:00:00 11.7 11 Este 19 Sudeste 0 -- -- 81
2021-02-04 05:00:00 11.6 8 Este 15 Este 0 -- -- 85
2021-02-04 04:00:00 11 6 Este 10 Sudeste 0 -- -- 91
2021-02-04 03:00:00 11 3 Sudeste 12 Este 0 -- -- 91
2021-02-04 02:00:00 11.4 7 Sudeste 11 Este 0 -- -- 93
2021-02-04 01:00:00 12.2 0 Calma 6 Sur 0 -- -- 89
2021-02-04 00:00:00 12.4 2 Sudeste 8 Sudoeste 0 -- -- 90
2021-02-03 23:00:00 12.7 3 Sudoeste 6 Sudoeste 0 -- -- 90
2021-02-03 22:00:00 13 0 Calma 3 Sudeste 0 -- -- 90
2021-02-03 21:00:00 13.2 0 Calma 8 Sudoeste 0 -- -- 87
2021-02-03 20:00:00 13.5 3 Sudoeste 6 Sudoeste 0 -- -- 86
2021-02-03 19:00:00 14.2 0 Calma 12 Oeste 0 -- -- 81
2021-02-03 18:00:00 15.2 3 Noroeste 11 Noroeste 0 -- -- 76
2021-02-03 17:00:00 15.7 4 Oeste 10 Noroeste 0 -- -- 72
2021-02-03 16:00:00 16.1 3 Noroeste 8 Noroeste 0 -- -- 69
2021-02-03 15:00:00 16.2 4 Oeste 11 Oeste 0 -- -- 67
2021-02-03 14:00:00 15.7 6 Noroeste 14 Noroeste 0 -- -- 71
2021-02-03 13:00:00 15.1 4 Noroeste 12 Noroeste 0 -- -- 70
2021-02-03 12:00:00 14.6 4 Oeste 8 Oeste 0 -- -- 72
2021-02-03 11:00:00 12.8 2 Sudoeste 4 Sudoeste 0 -- -- 82
2021-02-03 10:00:00 10.4 0 Calma 15 Este 0 -- -- 90
2021-02-03 09:00:00 9.9 8 Este 15 Sudeste 0 -- -- 88
2021-02-03 08:00:00 9.2 6 Este 14 Nordeste 0 -- -- 95
2021-02-03 07:00:00 8.4 5 Sudeste 8 Sudeste 0 -- -- 95
2021-02-03 06:00:00 8.4 3 Este 4 Sudeste 0 -- -- 96
2021-02-03 05:00:00 7.8 3 Sudeste 9 Este 0 -- -- 96
2021-02-03 04:00:00 8.4 4 Este 8 Sudeste 0 -- -- 96
2021-02-03 03:00:00 8.9 2 Noroeste 9 Este 0 -- -- 96
2021-02-03 02:00:00 8.9 3 Este 8 Este 0 -- -- 94
2021-02-03 01:00:00 9 4 Este 6 Este 0 -- -- 95
2021-02-03 00:00:00 9.1 0 Calma 6 Este 0 -- -- 96
2021-02-02 23:00:00 8.9 2 Sur 6 Este 0 -- -- 93
2021-02-02 22:00:00 10.2 3 Este 8 Este 0 -- -- 92
2021-02-02 21:00:00 11 2 Nordeste 8 Nordeste 0 -- -- 89
2021-02-02 20:00:00 12.8 6 Norte 13 Norte 0 -- -- 83
2021-02-02 19:00:00 13.7 9 Norte 15 Norte 0 -- -- 82
2021-02-02 18:00:00 16.2 8 Norte 18 Oeste 0 -- -- 72
2021-02-02 17:00:00 17.6 9 Oeste 20 Oeste 0 -- -- 69
2021-02-02 16:00:00 17.9 8 Noroeste 15 Sudoeste 0 -- -- 68
2021-02-02 15:00:00 17.3 10 Noroeste 19 Noroeste 0 -- -- 70
2021-02-02 14:00:00 16.8 9 Noroeste 17 Noroeste 0 -- -- 71
2021-02-02 13:00:00 16.1 7 Norte 18 Norte 0 -- -- 70
2021-02-02 12:00:00 14.7 9 Norte 21 Noroeste 0 -- -- 73
2021-02-02 11:00:00 13.8 2 Norte 6 Oeste 0 -- -- 77
2021-02-02 10:00:00 11.4 3 Sudeste 9 Este 0 -- -- 87
2021-02-02 09:00:00 8.9 7 Este 9 Este 0 -- -- 92
2021-02-02 08:00:00 9.6 3 Nordeste 9 Este 0 -- -- 89
2021-02-02 07:00:00 11 3 Este 8 Este 0 -- -- 89
2021-02-02 06:00:00 11.5 4 Norte 8 Norte 0 -- -- 88
2021-02-02 05:00:00 11.6 3 Norte 12 Norte 0 -- -- 90
2021-02-02 04:00:00 11.6 4 Norte 10 Norte 0 -- -- 92
2021-02-02 03:00:00 11 0 Calma 4 Norte 0 -- -- 95
2021-02-02 02:00:00 10.9 3 Norte 8 Noroeste 0 -- -- 94
2021-02-02 01:00:00 10.4 2 Norte 6 Norte 0 -- -- 96
2021-02-02 00:00:00 10.6 2 Norte 4 Norte 0 -- -- 94
2021-02-01 23:00:00 10.6 3 Norte 5 Este 0 -- -- 93
2021-02-01 22:00:00 12.1 0 Calma 3 Norte 0 -- -- 91
2021-02-01 21:00:00 12.1 0 Calma 5 Sudeste 0 -- -- 89
2021-02-01 20:00:00 12.4 2 Noroeste 4 Norte 0 -- -- 86
2021-02-01 19:00:00 13 0 Calma 8 Noroeste 0 -- -- 86
2021-02-01 18:00:00 13.8 3 Norte 18 Oeste 0 -- -- 83
2021-02-01 17:00:00 15.5 10 Oeste 20 Oeste 0 -- -- 77
2021-02-01 16:00:00 15.4 7 Oeste 17 Oeste 0 -- -- 83
2021-02-01 15:00:00 14.9 6 Noroeste 18 Oeste 0 -- -- 87
2021-02-01 14:00:00 14.6 9 Oeste 17 Sudoeste 0 -- -- 88
2021-02-01 13:00:00 14.4 2 Noroeste 13 Noroeste 0 -- -- 87
2021-02-01 12:00:00 13.9 7 Noroeste 13 Noroeste 0 -- -- 88
2021-02-01 11:00:00 13.4 8 Noroeste 14 Oeste 0.6 -- -- 97
2021-02-01 10:00:00 13 3 Noroeste 15 Noroeste 0.2 -- -- 98
2021-02-01 09:00:00 12.8 5 Noroeste 12 Norte 0.2 -- -- 97
2021-02-01 08:00:00 13 5 Noroeste 15 Noroeste 0.2 -- -- 98
2021-02-01 07:00:00 13.1 7 Noroeste 21 Noroeste 0.2 -- -- 98
2021-02-01 06:00:00 13.3 8 Noroeste 20 Noroeste 0 -- -- 98
2021-02-01 05:00:00 13.5 9 Noroeste 21 Oeste 0.2 -- -- 98
2021-02-01 04:00:00 13.6 9 Noroeste 29 Oeste 0 -- -- 98
2021-02-01 03:00:00 13.6 14 Oeste 30 Oeste 1 -- -- 98
2021-02-01 02:00:00 13.4 13 Noroeste 28 Oeste 1.4 -- -- 97
2021-02-01 01:00:00 13.3 8 Noroeste 26 Oeste 1.6 -- -- 97
2021-02-01 00:00:00 13.3 14 Noroeste 25 Noroeste 0.2 -- -- 96
2021-01-31 23:00:00 13 8 Noroeste 19 Noroeste 0.6 -- -- 96
2021-01-31 22:00:00 12.9 6 Oeste 20 Oeste 0 -- -- 94
2021-01-31 21:00:00 13 9 Oeste 19 Oeste 0 -- -- 90
2021-01-31 20:00:00 13 4 Oeste 20 Oeste 0 -- -- 88
2021-01-31 19:00:00 13.2 10 Oeste 22 Oeste 0 -- -- 86
2021-01-31 18:00:00 13.8 6 Oeste 23 Oeste 0 -- -- 83
2021-01-31 17:00:00 14.4 11 Oeste 26 Oeste 0 -- -- 79
2021-01-31 16:00:00 14.9 10 Oeste 25 Oeste 0 -- -- 76
2021-01-31 15:00:00 14.8 8 Noroeste 24 Oeste 0 -- -- 82
2021-01-31 14:00:00 13.8 10 Noroeste 23 Norte 0 -- -- 83
2021-01-31 13:00:00 13.1 8 Noroeste 17 Norte 0 -- -- 84
2021-01-31 12:00:00 12.9 6 Noroeste 15 Noroeste 0 -- -- 84
2021-01-31 11:00:00 12.1 6 Noroeste 16 Noroeste 0 -- -- 86
2021-01-31 10:00:00 11.1 8 Noroeste 15 Noroeste 0 -- -- 88
2021-01-31 09:00:00 10.7 9 Norte 15 Norte 0 -- -- 88
2021-01-31 08:00:00 10.4 8 Noroeste 22 Norte 0 -- -- 89
2021-01-31 07:00:00 10.2 10 Noroeste 18 Norte 0 -- -- 89
2021-01-31 06:00:00 10.1 8 Noroeste 15 Noroeste 0 -- -- 89
2021-01-31 05:00:00 10.1 9 Norte 17 Norte 0 -- -- 89
2021-01-31 04:00:00 10.2 6 Noroeste 16 Norte 0 -- -- 89
2021-01-31 03:00:00 10.4 9 Noroeste 17 Noroeste 0 -- -- 87
2021-01-31 02:00:00 10.2 5 Noroeste 15 Norte 0 -- -- 88
2021-01-31 01:00:00 9.8 5 Noroeste 10 Noroeste 0 -- -- 89
2021-01-31 00:00:00 9.9 5 Noroeste 18 Noroeste 0 -- -- 85
2021-01-30 23:00:00 10.5 7 Noroeste 19 Noroeste 0 -- -- 81
2021-01-30 22:00:00 11.2 11 Noroeste 23 Noroeste 0 -- -- 82
2021-01-30 21:00:00 11.8 9 Noroeste 17 Norte 0 -- -- 92
2021-01-30 20:00:00 12.2 8 Noroeste 27 Oeste 0 -- -- 89
2021-01-30 19:00:00 13.2 12 Noroeste 27 Oeste 0.2 -- -- 79
2021-01-30 18:00:00 14.5 8 Noroeste 26 Noroeste 0 -- -- 78
2021-01-30 17:00:00 15.5 15 Noroeste 26 Noroeste 0 -- -- 76
2021-01-30 16:00:00 15.6 13 Noroeste 26 Oeste 0 -- -- 74
2021-01-30 15:00:00 14.4 12 Noroeste 34 Noroeste 0 -- -- 90
2021-01-30 14:00:00 14.9 18 Oeste 41 Oeste 1.6 -- -- 96
2021-01-30 13:00:00 14 9 Oeste 24 Oeste 1 -- -- 97
2021-01-30 12:00:00 13.6 9 Oeste 19 Oeste 0.6 -- -- 98
2021-01-30 11:00:00 12.8 3 Oeste 13 Noroeste 1 -- -- 98
2021-01-30 10:00:00 12.3 2 Sudeste 10 Este 0.2 -- -- 97
2021-01-30 09:00:00 11.7 7 Este 11 Este 0.4 -- -- 97
2021-01-30 08:00:00 11.6 2 Norte 5 Norte 0.4 -- -- 96
2021-01-30 07:00:00 11.5 0 Calma 10 Este 0.2 -- -- 95
2021-01-30 06:00:00 11.7 0 Calma 14 Oeste 0 -- -- 93
2021-01-30 05:00:00 12 3 Oeste 11 Este 0 -- -- 91
2021-01-30 04:00:00 11.9 5 Sudeste 13 Sudeste 0 -- -- 91
2021-01-30 03:00:00 11.9 3 Sudeste 11 Sudeste 0 -- -- 92
2021-01-30 02:00:00 12 0 Calma 6 Noroeste 0 -- -- 92
2021-01-30 01:00:00 12.1 3 Noroeste 5 Noroeste 0 -- -- 93
2021-01-30 00:00:00 12.2 0 Calma 8 Oeste 0 -- -- 93